createdAt,value
2022-08-02T00:00:55.573Z,101158.66
2022-08-02T00:03:24.593Z,101156.22
2022-08-02T00:05:53.064Z,101156.53
2022-08-02T00:08:21.020Z,101165.13
2022-08-02T00:10:47.482Z,101166.19
2022-08-02T00:13:13.972Z,101158.19
2022-08-02T00:15:40.383Z,101162.81
2022-08-02T00:18:06.844Z,101158.75
2022-08-02T00:20:33.303Z,101161.41
2022-08-02T00:22:59.718Z,101171.84
2022-08-02T00:25:26.189Z,101172.94
2022-08-02T00:27:52.604Z,101178.34
2022-08-02T00:30:19.037Z,101186.59
2022-08-02T00:32:45.436Z,101183.56
2022-08-02T00:35:11.864Z,101181.91
2022-08-02T00:37:39.916Z,101182.34
2022-08-02T00:40:07.341Z,101175.97
2022-08-02T00:42:33.853Z,101175.41
2022-08-02T00:45:00.333Z,101179.50
2022-08-02T00:47:26.741Z,101176.63
2022-08-02T00:49:53.162Z,101165.16
2022-08-02T00:52:19.655Z,101173.38
2022-08-02T00:54:46.078Z,101164.25
2022-08-02T00:57:12.487Z,101162.97
2022-08-02T00:59:38.953Z,101154.34
2022-08-02T01:02:05.420Z,101164.78
2022-08-02T01:04:32.453Z,101164.34
2022-08-02T01:07:00.639Z,101173.31
2022-08-02T01:09:27.430Z,101171.22
2022-08-02T01:11:53.862Z,101174.53
2022-08-02T01:14:20.725Z,101169.41
2022-08-02T01:17:05.572Z,101172.47
2022-08-02T01:19:37.626Z,101175.25
2022-08-02T01:22:58.106Z,101164.34
2022-08-02T01:25:40.972Z,101163.19
2022-08-02T01:28:46.344Z,101163.88
2022-08-02T01:31:26.603Z,101167.88
2022-08-02T01:34:13.706Z,101159.16
2022-08-02T01:36:44.273Z,101164.38
2022-08-02T01:39:26.388Z,101157.16
2022-08-02T01:41:59.199Z,101166.41
2022-08-02T01:44:27.147Z,101164.97
2022-08-02T01:46:58.074Z,101157.56
2022-08-02T01:49:25.107Z,101154.91
2022-08-02T01:52:11.636Z,101153.78
2022-08-02T01:54:38.833Z,101156.28
2022-08-02T01:57:06.821Z,101151.88
2022-08-02T01:59:33.643Z,101152.78
2022-08-02T02:02:01.330Z,101161.22
2022-08-02T02:04:29.726Z,101156.69
2022-08-02T02:06:59.873Z,101156.41
2022-08-02T02:09:29.474Z,101146.66
2022-08-02T02:12:11.427Z,101153.16
2022-08-02T02:14:41.417Z,101149.97
2022-08-02T02:17:50.751Z,101140.56
2022-08-02T02:20:06.349Z,101141.44
2022-08-02T02:22:32.806Z,101150.19
2022-08-02T02:24:59.268Z,101138.78
2022-08-02T02:27:27.288Z,101129.44
2022-08-02T02:29:54.177Z,101129.94
2022-08-02T02:32:21.263Z,101125.66
2022-08-02T02:34:50.065Z,101139.38
2022-08-02T02:37:19.314Z,101132.88
2022-08-02T02:39:46.220Z,101127.56
2022-08-02T02:42:15.218Z,101134.97
2022-08-02T02:44:42.952Z,101131.56
2022-08-02T02:47:10.264Z,101134.34
2022-08-02T02:49:37.942Z,101129.56
2022-08-02T02:52:06.072Z,101126.84
2022-08-02T02:54:35.410Z,101119.75
2022-08-02T02:57:03.216Z,101118.31
2022-08-02T02:59:30.380Z,101109.31
2022-08-02T03:01:58.311Z,101106.59
2022-08-02T03:04:27.347Z,101103.41
2022-08-02T03:07:02.628Z,101102.28
2022-08-02T03:09:29.174Z,101100.09
2022-08-02T03:11:55.832Z,101100.31
2022-08-02T03:14:22.679Z,101103.22
2022-08-02T03:16:54.010Z,101106.13
2022-08-02T03:19:21.831Z,101104.38
2022-08-02T03:21:56.122Z,101115.72
2022-08-02T03:24:28.215Z,101119.53
2022-08-02T03:26:54.841Z,101119.16
2022-08-02T03:29:21.269Z,101122.66
2022-08-02T03:31:47.775Z,101127.84
2022-08-02T03:34:14.242Z,101127.66
2022-08-02T03:36:41.513Z,101126.53
2022-08-02T03:39:08.185Z,101115.97
2022-08-02T03:41:36.134Z,101107.13
2022-08-02T03:44:02.941Z,101111.28
2022-08-02T03:46:29.432Z,101103.09
2022-08-02T03:48:56.381Z,101103.38
2022-08-02T03:51:22.934Z,101106.50
2022-08-02T03:53:50.089Z,101108.56
2022-08-02T03:56:16.811Z,101098.97
2022-08-02T03:58:48.485Z,101092.28
2022-08-02T04:01:16.156Z,101092.25
2022-08-02T04:03:42.729Z,101105.91
2022-08-02T04:06:09.185Z,101101.09
2022-08-02T04:08:38.453Z,101107.19
2022-08-02T04:11:24.236Z,101116.28
2022-08-02T04:13:50.710Z,101109.06
2022-08-02T04:16:21.955Z,101112.06
2022-08-02T04:18:52.606Z,101110.69
2022-08-02T04:21:21.008Z,101111.59
2022-08-02T04:23:48.792Z,101123.47
2022-08-02T04:26:15.721Z,101120.50
2022-08-02T04:28:43.214Z,101130.41
2022-08-02T04:31:10.057Z,101130.91
2022-08-02T04:33:37.518Z,101137.28
2022-08-02T04:36:06.042Z,101129.50
2022-08-02T04:38:32.548Z,101129.94
2022-08-02T04:40:59.085Z,101129.94
2022-08-02T04:43:25.759Z,101124.72
2022-08-02T04:45:54.451Z,101138.94
2022-08-02T04:48:21.764Z,101135.34
2022-08-02T04:50:48.223Z,101140.75
2022-08-02T04:53:14.681Z,101125.66
2022-08-02T04:55:41.189Z,101128.75
2022-08-02T04:58:37.009Z,101125.75
2022-08-02T05:00:54.220Z,101133.84
2022-08-02T05:03:20.720Z,101121.53
2022-08-02T05:05:47.128Z,101122.13
2022-08-02T05:08:13.550Z,101133.84
2022-08-02T05:10:39.961Z,101131.13
2022-08-02T05:13:06.465Z,101136.78
2022-08-02T05:15:33.509Z,101141.16
2022-08-02T05:18:00.113Z,101147.38
2022-08-02T05:20:26.554Z,101142.97
2022-08-02T05:22:53.042Z,101136.06
2022-08-02T05:25:19.517Z,101135.53
2022-08-02T05:27:46.002Z,101137.72
2022-08-02T05:30:12.623Z,101130.31
2022-08-02T05:32:50.532Z,101138.13
2022-08-02T05:35:22.071Z,101133.59
2022-08-02T05:37:49.557Z,101127.94
2022-08-02T05:40:16.670Z,101134.91
2022-08-02T05:42:43.498Z,101136.91
2022-08-02T05:45:10.554Z,101141.81
2022-08-02T05:47:37.555Z,101145.63
2022-08-02T05:50:05.827Z,101152.47
2022-08-02T05:52:37.065Z,101144.59
2022-08-02T05:55:10.000Z,101150.53
2022-08-02T05:57:53.157Z,101137.88
2022-08-02T06:00:20.277Z,101137.50
2022-08-02T06:02:58.752Z,101123.91
2022-08-02T06:05:27.008Z,101120.16
2022-08-02T06:07:55.170Z,101128.19
2022-08-02T06:10:22.084Z,101125.75
2022-08-02T06:13:14.135Z,101118.09
2022-08-02T06:15:52.665Z,101115.38
2022-08-02T06:18:28.565Z,101126.91
2022-08-02T06:20:59.333Z,101130.38
2022-08-02T06:23:56.639Z,101118.88
2022-08-02T06:26:26.752Z,101109.88
2022-08-02T06:28:54.490Z,101114.63
2022-08-02T06:31:20.968Z,101112.81
2022-08-02T06:33:48.096Z,101097.84
2022-08-02T06:36:40.968Z,101108.22
2022-08-02T06:39:20.856Z,101106.44
2022-08-02T06:41:49.843Z,101099.28
2022-08-02T06:47:11.633Z,101084.78
2022-08-02T06:49:51.617Z,101081.19
2022-08-02T06:52:25.607Z,101080.91
2022-08-02T06:54:55.466Z,101084.38
2022-08-02T06:57:21.936Z,101082.81
2022-08-02T06:59:48.407Z,101075.59
2022-08-02T07:02:14.862Z,101076.91
2022-08-02T07:04:41.318Z,101076.44
2022-08-02T07:07:07.755Z,101079.41
2022-08-02T07:09:34.205Z,101070.22
2022-08-02T07:12:00.672Z,101064.75
2022-08-02T07:14:27.106Z,101056.59
2022-08-02T07:16:53.629Z,101050.13
2022-08-02T07:19:20.057Z,101042.25
2022-08-02T07:21:56.648Z,101032.81
2022-08-02T07:24:24.599Z,101031.47
2022-08-02T07:27:10.610Z,101031.31
2022-08-02T07:29:44.953Z,101030.69
2022-08-02T07:32:17.694Z,101036.94
2022-08-02T07:34:51.015Z,101037.03
2022-08-02T07:37:53.759Z,101032.53
2022-08-02T07:40:19.977Z,101032.38
2022-08-02T07:42:48.563Z,101020.34
2022-08-02T07:45:15.022Z,101019.09
2022-08-02T07:47:42.993Z,101024.59
2022-08-02T07:50:10.121Z,101022.75
2022-08-02T07:52:36.860Z,101026.94
2022-08-02T07:55:04.299Z,101016.28
2022-08-02T07:57:30.973Z,101025.34
2022-08-02T07:59:57.581Z,101013.63
2022-08-02T08:02:24.988Z,101017.88
2022-08-02T08:04:52.070Z,101016.22
2022-08-02T08:07:18.632Z,101015.75
2022-08-02T08:09:47.254Z,101008.44
2022-08-02T08:12:14.171Z,101011.63
2022-08-02T08:14:42.006Z,101012.25
2022-08-02T08:17:08.733Z,101014.47
2022-08-02T08:19:50.576Z,101010.72
2022-08-02T08:22:18.414Z,101002.66
2022-08-02T08:24:45.310Z,101002.34
2022-08-02T08:27:14.570Z,100993.34
2022-08-02T08:29:44.921Z,100987.72
2022-08-02T08:32:16.222Z,100993.75
2022-08-02T08:34:43.949Z,100980.38
2022-08-02T08:37:17.178Z,100983.28
2022-08-02T08:39:57.514Z,100981.31
2022-08-02T08:42:30.254Z,100989.63
2022-08-02T08:44:57.532Z,100987.88
2022-08-02T08:47:33.828Z,100982.63
2022-08-02T08:50:04.450Z,100977.50
2022-08-02T08:52:35.410Z,100987.38
2022-08-02T08:55:04.142Z,100990.94
2022-08-02T08:57:31.410Z,100987.81
2022-08-02T08:59:58.199Z,100983.59
2022-08-02T09:02:27.904Z,100978.66
2022-08-02T09:04:55.484Z,100974.91
2022-08-02T09:07:23.230Z,100968.19
2022-08-02T09:09:49.718Z,100973.19
2022-08-02T09:12:17.373Z,100965.56
2022-08-02T09:14:46.383Z,100966.69
2022-08-02T09:17:16.796Z,100959.53
2022-08-02T09:19:46.070Z,100965.72
2022-08-02T09:22:14.787Z,100962.63
2022-08-02T09:24:49.912Z,100954.09
2022-08-02T09:27:18.062Z,100951.56
2022-08-02T09:30:12.621Z,100955.25
2022-08-02T09:32:47.988Z,100959.81
2022-08-02T09:35:31.193Z,100959.41
2022-08-02T09:38:17.584Z,100957.06
2022-08-02T09:40:44.320Z,100947.41
2022-08-02T09:43:10.877Z,100954.25
2022-08-02T09:45:37.695Z,100945.69
2022-08-02T09:48:08.190Z,100948.91
2022-08-02T09:50:36.552Z,100949.84
2022-08-02T09:53:03.998Z,100960.72
2022-08-02T09:55:30.689Z,100955.25
2022-08-02T09:57:57.594Z,100952.47
2022-08-02T10:00:43.365Z,100958.31
2022-08-02T10:03:14.860Z,100954.59
2022-08-02T10:05:55.569Z,100956.28
2022-08-02T10:08:22.934Z,100964.25
2022-08-02T10:10:49.373Z,100950.97
2022-08-02T10:13:21.614Z,100945.88
2022-08-02T10:15:50.379Z,100941.19
2022-08-02T10:18:37.018Z,100939.72
2022-08-02T10:21:07.092Z,100937.81
2022-08-02T10:23:36.513Z,100929.28
2022-08-02T10:26:03.361Z,100941.09
2022-08-02T10:28:32.667Z,100949.34
2022-08-02T10:31:01.443Z,100950.81
2022-08-02T10:33:33.359Z,100943.09
2022-08-02T10:36:07.134Z,100950.19
2022-08-02T10:38:34.922Z,100939.78
2022-08-02T10:41:01.408Z,100943.66
2022-08-02T10:43:36.606Z,100944.16
2022-08-02T10:46:20.569Z,100939.72
2022-08-02T10:52:03.266Z,100922.03
2022-08-02T10:54:56.395Z,100931.63
2022-08-02T10:57:28.354Z,100934.97
2022-08-02T10:59:56.077Z,100928.00
2022-08-02T11:02:42.978Z,100925.59
2022-08-02T11:05:43.150Z,100920.66
2022-08-02T11:08:20.991Z,100913.25
2022-08-02T11:10:47.721Z,100911.72
2022-08-02T11:13:16.167Z,100908.31
2022-08-02T11:16:02.043Z,100909.94
2022-08-02T11:18:43.680Z,100905.44
2022-08-02T11:21:23.572Z,100898.66
2022-08-02T11:23:50.684Z,100905.81
2022-08-02T11:26:29.198Z,100907.59
2022-08-02T11:28:56.169Z,100903.03
2022-08-02T11:31:22.603Z,100902.03
2022-08-02T11:33:50.050Z,100884.44
2022-08-02T11:36:17.141Z,100906.72
2022-08-02T11:38:43.649Z,100901.25
2022-08-02T11:41:11.277Z,100881.91
2022-08-02T11:43:38.112Z,100890.81
2022-08-02T11:46:04.898Z,100899.56
2022-08-02T11:48:36.621Z,100902.19
2022-08-02T11:51:10.394Z,100895.25
2022-08-02T11:53:53.352Z,100905.69
2022-08-02T11:56:29.908Z,100905.84
2022-08-02T11:59:07.763Z,100893.47
2022-08-02T12:01:45.059Z,100898.81
2022-08-02T12:04:16.404Z,100893.44
2022-08-02T12:06:43.916Z,100881.03
2022-08-02T12:09:19.046Z,100892.47
2022-08-02T12:11:49.183Z,100890.78
2022-08-02T12:14:15.677Z,100887.13
2022-08-02T12:17:00.405Z,100883.59
2022-08-02T12:19:27.750Z,100883.69
2022-08-02T12:22:20.211Z,100879.25
2022-08-02T12:24:53.863Z,100880.13
2022-08-02T12:27:34.945Z,100871.19
2022-08-02T12:30:17.423Z,100866.81
2022-08-02T12:32:54.045Z,100873.91
2022-08-02T12:35:26.476Z,100877.47
2022-08-02T12:37:53.651Z,100876.59
2022-08-02T12:40:29.644Z,100875.56
2022-08-02T12:42:58.814Z,100867.50
2022-08-02T12:45:27.085Z,100872.84
2022-08-02T12:48:05.809Z,100875.22
2022-08-02T12:50:37.057Z,100870.09
2022-08-02T12:53:14.605Z,100864.78
2022-08-02T12:56:01.998Z,100875.63
2022-08-02T12:58:30.642Z,100873.91
2022-08-02T13:01:01.550Z,100875.59
2022-08-02T13:04:10.697Z,100867.81
2022-08-02T13:06:40.760Z,100868.47
2022-08-02T13:09:02.850Z,100870.09
2022-08-02T13:11:29.458Z,100874.50
2022-08-02T13:13:55.982Z,100853.94
2022-08-02T13:16:30.630Z,100854.00
2022-08-02T13:18:57.778Z,100848.53
2022-08-02T13:21:41.694Z,100843.94
2022-08-02T13:24:33.200Z,100845.78
2022-08-02T13:26:59.273Z,100838.88
2022-08-02T13:29:31.134Z,100841.44
2022-08-02T13:31:57.605Z,100842.19
2022-08-02T13:34:24.199Z,100834.47
2022-08-02T13:36:50.617Z,100829.09
2022-08-02T13:39:17.026Z,100824.19
2022-08-02T13:41:43.455Z,100819.50
2022-08-02T13:44:11.022Z,100829.44
2022-08-02T13:46:45.681Z,100821.00
2022-08-02T13:49:18.506Z,100819.34
2022-08-02T13:51:45.967Z,100812.47
2022-08-02T13:54:12.430Z,100819.19
2022-08-02T13:56:38.864Z,100814.38
2022-08-02T13:59:54.474Z,100813.59
2022-08-02T14:01:52.599Z,100809.88
2022-08-02T14:04:19.143Z,100804.69
2022-08-02T14:06:45.558Z,100805.16
2022-08-02T14:09:15.490Z,100807.22
2022-08-02T14:11:44.299Z,100809.63
2022-08-02T14:14:16.349Z,100803.22
2022-08-02T14:16:45.037Z,100790.53
2022-08-02T14:19:15.656Z,100793.75
2022-08-02T14:21:46.492Z,100792.31
2022-08-02T14:24:13.920Z,100795.34
2022-08-02T14:26:40.326Z,100798.00
2022-08-02T14:29:06.763Z,100792.50
2022-08-02T14:31:33.181Z,100791.25
2022-08-02T14:33:59.685Z,100788.06
2022-08-02T14:36:27.406Z,100782.91
2022-08-02T14:38:55.272Z,100782.69
2022-08-02T14:41:22.447Z,100771.38
2022-08-02T14:44:04.026Z,100772.00
2022-08-02T14:46:35.817Z,100779.13
2022-08-02T14:49:03.666Z,100775.28
2022-08-02T14:51:31.564Z,100774.94
2022-08-02T14:54:02.812Z,100779.44
2022-08-02T14:56:29.726Z,100774.03
2022-08-02T14:58:56.193Z,100763.84
2022-08-02T15:01:26.120Z,100768.25
2022-08-02T15:03:53.059Z,100764.84
2022-08-02T15:06:19.679Z,100765.94
2022-08-02T15:08:46.106Z,100756.22
2022-08-02T15:11:12.540Z,100756.00
2022-08-02T15:13:42.517Z,100759.28
2022-08-02T15:16:09.345Z,100755.19
2022-08-02T15:18:35.834Z,100758.81
2022-08-02T15:21:07.986Z,100757.84
2022-08-02T15:23:48.771Z,100760.72
2022-08-02T15:26:15.228Z,100754.53
2022-08-02T15:28:41.653Z,100759.78
2022-08-02T15:31:08.076Z,100751.03
2022-08-02T15:33:34.589Z,100746.25
2022-08-02T15:36:01.361Z,100747.03
2022-08-02T15:38:27.857Z,100751.53
2022-08-02T15:40:54.305Z,100756.16
2022-08-02T15:43:21.479Z,100756.38
2022-08-02T15:45:47.894Z,100761.84
2022-08-02T15:48:14.443Z,100758.16
2022-08-02T15:50:40.865Z,100752.84
2022-08-02T15:53:07.539Z,100759.78
2022-08-02T15:55:40.098Z,100751.75
2022-08-02T15:58:22.302Z,100745.59
2022-08-02T16:00:49.397Z,100747.31
2022-08-02T16:03:15.902Z,100739.44
2022-08-02T16:05:42.323Z,100746.44
2022-08-02T16:08:08.732Z,100746.69
2022-08-02T16:10:35.180Z,100742.19
2022-08-02T16:13:20.335Z,100745.81
2022-08-02T16:15:46.737Z,100745.69
2022-08-02T16:18:13.169Z,100738.56
2022-08-02T16:20:39.717Z,100734.09
2022-08-02T16:23:06.215Z,100728.84
2022-08-02T16:25:32.626Z,100733.47
2022-08-02T16:28:06.903Z,100727.09
2022-08-02T16:30:34.687Z,100727.19
2022-08-02T16:33:01.202Z,100729.81
2022-08-02T16:35:30.686Z,100736.97
2022-08-02T16:37:57.140Z,100734.38
2022-08-02T16:40:23.710Z,100729.03
2022-08-02T16:42:50.557Z,100727.19
2022-08-02T16:45:19.976Z,100714.75
2022-08-02T16:47:55.174Z,100719.03
2022-08-02T16:50:28.044Z,100724.53
2022-08-02T16:53:17.193Z,100718.31
2022-08-02T16:55:57.933Z,100722.84
2022-08-02T16:58:24.424Z,100724.63
2022-08-02T17:00:51.582Z,100716.66
2022-08-02T17:03:18.661Z,100711.41
2022-08-02T17:05:55.777Z,100703.38
2022-08-02T17:08:23.470Z,100705.16
2022-08-02T17:10:58.741Z,100703.41
2022-08-02T17:13:30.186Z,100703.41
2022-08-02T17:16:16.569Z,100696.31
2022-08-02T17:18:43.215Z,100689.19
2022-08-02T17:21:15.678Z,100696.31
2022-08-02T17:24:03.833Z,100691.00
2022-08-02T17:26:31.284Z,100691.00
2022-08-02T17:29:16.534Z,100693.63
2022-08-02T17:32:02.470Z,100693.63
2022-08-02T17:34:33.425Z,100693.66
2022-08-02T17:37:00.071Z,100688.34
2022-08-02T17:39:29.314Z,100688.34
2022-08-02T17:42:00.611Z,100683.03
2022-08-02T17:44:37.666Z,100690.13
2022-08-02T17:47:07.280Z,100697.25
2022-08-02T17:49:42.763Z,100694.56
2022-08-02T17:52:16.041Z,100691.00
2022-08-02T17:54:57.578Z,100688.34
2022-08-02T17:57:24.028Z,100698.09
2022-08-02T18:00:11.104Z,100699.00
2022-08-02T18:02:38.995Z,100697.22
2022-08-02T18:05:05.774Z,100691.91
2022-08-02T18:07:43.323Z,100699.00
2022-08-02T18:10:17.737Z,100697.22
2022-08-02T18:12:45.889Z,100698.13
2022-08-02T18:15:14.381Z,100694.56
2022-08-02T18:17:41.319Z,100691.91
2022-08-02T18:20:11.021Z,100694.47
2022-08-02T18:22:37.944Z,100697.97
2022-08-02T18:25:09.353Z,100701.53
2022-08-02T18:27:36.197Z,100690.94
2022-08-02T18:30:07.788Z,100698.91
2022-08-02T18:33:55.283Z,100704.19
2022-08-02T18:35:21.338Z,100692.72
2022-08-02T18:37:57.043Z,100697.97
2022-08-02T18:40:27.364Z,100697.97
2022-08-02T18:42:53.952Z,100700.59
2022-08-02T18:45:21.223Z,100700.59
2022-08-02T18:47:50.922Z,100704.13
2022-08-02T18:50:18.791Z,100702.22
2022-08-02T18:52:47.518Z,100705.81
2022-08-02T18:55:17.277Z,100703.97
2022-08-02T18:58:19.274Z,100709.09
2022-08-02T19:00:47.744Z,100719.47
2022-08-02T19:03:18.809Z,100715.78
2022-08-02T19:05:52.230Z,100720.22
2022-08-02T19:08:25.584Z,100714.84
2022-08-02T19:10:53.775Z,100714.63
2022-08-02T19:13:23.037Z,100718.09
2022-08-02T19:15:49.497Z,100712.78
2022-08-02T19:18:15.937Z,100708.19
2022-08-02T19:20:48.009Z,100711.56
2022-08-02T19:23:15.078Z,100718.44
2022-08-02T19:25:50.057Z,100722.72
2022-08-02T19:28:16.888Z,100723.56
2022-08-02T19:30:52.877Z,100725.06
2022-08-02T19:33:54.340Z,100728.50
2022-08-02T19:36:07.084Z,100732.00
2022-08-02T19:38:33.498Z,100725.88
2022-08-02T19:40:59.953Z,100731.00
2022-08-02T19:44:22.978Z,100730.81
2022-08-02T19:46:16.020Z,100731.44
2022-08-02T19:48:42.909Z,100741.88
2022-08-02T19:51:12.910Z,100744.72
2022-08-02T19:53:48.899Z,100750.38
2022-08-02T19:56:25.220Z,100744.34
2022-08-02T19:58:57.602Z,100746.88
2022-08-02T20:01:36.598Z,100748.22
2022-08-02T20:04:07.538Z,100751.94
2022-08-02T20:06:42.046Z,100751.72
2022-08-02T20:09:12.872Z,100747.09
2022-08-02T20:11:44.338Z,100742.03
2022-08-02T20:14:10.855Z,100752.16
2022-08-02T20:16:39.796Z,100747.78
2022-08-02T20:19:08.255Z,100749.63
2022-08-02T20:21:37.173Z,100749.66
2022-08-02T20:24:09.252Z,100746.78
2022-08-02T20:26:38.171Z,100756.22
2022-08-02T20:29:05.010Z,100761.28
2022-08-02T20:31:31.507Z,100763.47
2022-08-02T20:33:57.951Z,100765.13
2022-08-02T20:36:27.834Z,100769.69
2022-08-02T20:38:55.203Z,100769.72
2022-08-02T20:41:23.321Z,100770.44
2022-08-02T20:43:50.180Z,100767.47
2022-08-02T20:46:16.605Z,100770.69
2022-08-02T20:48:44.079Z,100771.00
2022-08-02T20:51:12.118Z,100764.81
2022-08-02T20:53:54.838Z,100772.69
2022-08-02T20:56:23.124Z,100769.69
2022-08-02T20:58:52.004Z,100774.88
2022-08-02T21:01:21.133Z,100765.13
2022-08-02T21:03:58.452Z,100767.72
2022-08-02T21:06:28.016Z,100763.06
2022-08-02T21:08:54.840Z,100765.53
2022-08-02T21:11:25.513Z,100762.47
2022-08-02T21:14:07.473Z,100762.38
2022-08-02T21:16:35.866Z,100764.84
2022-08-02T21:19:02.621Z,100763.13
2022-08-02T21:21:30.002Z,100764.94
2022-08-02T21:23:56.946Z,100764.59
2022-08-02T21:26:28.191Z,100763.47
2022-08-02T21:28:56.777Z,100772.94
2022-08-02T21:31:23.323Z,100765.50
2022-08-02T21:33:59.479Z,100768.13
2022-08-02T21:36:33.134Z,100773.44
2022-08-02T21:39:08.897Z,100779.59
2022-08-02T21:41:39.066Z,100776.00
2022-08-02T21:44:13.799Z,100779.38
2022-08-02T21:46:44.334Z,100780.22
2022-08-02T21:49:12.404Z,100788.13
2022-08-02T21:51:39.129Z,100786.19
2022-08-02T21:54:18.474Z,100782.22
2022-08-02T21:56:55.226Z,100789.06
2022-08-02T21:59:25.413Z,100780.50
2022-08-02T22:01:56.997Z,100779.63
2022-08-02T22:04:24.486Z,100787.38
2022-08-02T22:06:51.019Z,100795.28
2022-08-02T22:09:43.628Z,100789.91
2022-08-02T22:12:06.573Z,100794.03
2022-08-02T22:14:37.219Z,100792.16
2022-08-02T22:17:08.716Z,100799.66
2022-08-02T22:19:39.869Z,100798.09
2022-08-02T22:22:20.301Z,100795.16
2022-08-02T22:24:46.807Z,100798.75
2022-08-02T22:27:14.094Z,100798.22
2022-08-02T22:29:40.527Z,100798.22
2022-08-02T22:32:07.273Z,100794.25
2022-08-02T22:34:51.167Z,100801.50
2022-08-02T22:38:17.336Z,100800.63
2022-08-02T22:40:09.279Z,100802.16
2022-08-02T22:42:36.579Z,100805.75
2022-08-02T22:45:07.408Z,100801.84
2022-08-02T22:47:38.496Z,100803.66
2022-08-02T22:50:05.621Z,100799.66
2022-08-02T22:52:38.269Z,100802.91
2022-08-02T22:55:05.110Z,100806.53
2022-08-02T22:57:33.072Z,100802.53
2022-08-02T23:00:19.581Z,100794.22
2022-08-02T23:02:45.993Z,100799.56
2022-08-02T23:05:13.091Z,100807.22
2022-08-02T23:07:39.648Z,100807.50
2022-08-02T23:10:07.744Z,100808.66
2022-08-02T23:12:34.473Z,100812.19
2022-08-02T23:15:00.931Z,100794.84
2022-08-02T23:17:45.748Z,100798.44
2022-08-02T23:20:15.206Z,100798.38
2022-08-02T23:22:42.349Z,100789.78
2022-08-02T23:25:09.655Z,100788.91
2022-08-02T23:27:36.074Z,100799.56
2022-08-02T23:30:03.907Z,100794.22
2022-08-02T23:32:30.337Z,100798.53
2022-08-02T23:34:57.904Z,100793.34
2022-08-02T23:37:24.754Z,100799.94
2022-08-02T23:39:51.642Z,100805.13
2022-08-02T23:42:18.253Z,100806.59
2022-08-02T23:44:45.069Z,100798.03
2022-08-02T23:47:11.493Z,100796.38
2022-08-02T23:49:38.101Z,100800.94
2022-08-02T23:52:04.686Z,100806.31
2022-08-02T23:54:31.088Z,100798.31
2022-08-02T23:56:57.614Z,100803.38
2022-08-02T23:59:24.067Z,100793.06
